sensor_id;sensor_type;location;lat;lon;timestamp;temperature;humidity
10678;DHT22;5387;48.722;9.110;2022-12-29T00:02:13;8.10;99.90
10678;DHT22;5387;48.722;9.110;2022-12-29T00:04:40;8.00;99.90
10678;DHT22;5387;48.722;9.110;2022-12-29T00:07:08;8.10;99.90
10678;DHT22;5387;48.722;9.110;2022-12-29T00:09:36;8.10;99.90
10678;DHT22;5387;48.722;9.110;2022-12-29T00:12:03;8.20;99.90
10678;DHT22;5387;48.722;9.110;2022-12-29T00:14:30;8.20;99.90
10678;DHT22;5387;48.722;9.110;2022-12-29T00:17:15;8.20;99.90
10678;DHT22;5387;48.722;9.110;2022-12-29T00:19:41;8.30;99.90
10678;DHT22;5387;48.722;9.110;2022-12-29T00:22:27;8.20;99.90
10678;DHT22;5387;48.722;9.110;2022-12-29T00:25:12;8.10;99.90
10678;DHT22;5387;48.722;9.110;2022-12-29T00:27:57;8.20;99.90
10678;DHT22;5387;48.722;9.110;2022-12-29T00:30:42;8.20;99.90
10678;DHT22;5387;48.722;9.110;2022-12-29T00:33:28;8.10;99.90
10678;DHT22;5387;48.722;9.110;2022-12-29T00:36:16;8.30;99.90
10678;DHT22;5387;48.722;9.110;2022-12-29T00:38:47;8.30;99.90
10678;DHT22;5387;48.722;9.110;2022-12-29T00:41:33;8.20;99.90
10678;DHT22;5387;48.722;9.110;2022-12-29T00:44:17;8.20;99.90
10678;DHT22;5387;48.722;9.110;2022-12-29T00:46:44;8.10;99.90
10678;DHT22;5387;48.722;9.110;2022-12-29T00:49:13;8.10;99.90
10678;DHT22;5387;48.722;9.110;2022-12-29T00:52:00;8.20;99.90
10678;DHT22;5387;48.722;9.110;2022-12-29T00:54:30;8.30;99.90
10678;DHT22;5387;48.722;9.110;2022-12-29T00:56:57;8.40;99.90
10678;DHT22;5387;48.722;9.110;2022-12-29T00:59:24;8.30;99.90
10678;DHT22;5387;48.722;9.110;2022-12-29T01:01:52;8.20;99.90
10678;DHT22;5387;48.722;9.110;2022-12-29T01:04:20;8.20;99.90
10678;DHT22;5387;48.722;9.110;2022-12-29T01:06:48;8.00;99.90
10678;DHT22;5387;48.722;9.110;2022-12-29T01:09:15;8.00;99.90
10678;DHT22;5387;48.722;9.110;2022-12-29T01:12:01;8.20;99.90
10678;DHT22;5387;48.722;9.110;2022-12-29T01:14:28;8.30;99.90
10678;DHT22;5387;48.722;9.110;2022-12-29T01:16:56;8.30;99.90
10678;DHT22;5387;48.722;9.110;2022-12-29T01:19:23;8.50;99.90
10678;DHT22;5387;48.722;9.110;2022-12-29T01:21:50;8.60;99.90
10678;DHT22;5387;48.722;9.110;2022-12-29T01:24:18;8.70;99.90
10678;DHT22;5387;48.722;9.110;2022-12-29T01:26:46;8.90;99.90
10678;DHT22;5387;48.722;9.110;2022-12-29T01:29:15;8.80;99.90
10678;DHT22;5387;48.722;9.110;2022-12-29T01:31:42;8.80;99.90
10678;DHT22;5387;48.722;9.110;2022-12-29T01:34:09;8.70;99.90
10678;DHT22;5387;48.722;9.110;2022-12-29T01:36:36;8.80;99.90
10678;DHT22;5387;48.722;9.110;2022-12-29T01:39:02;9.00;99.90
10678;DHT22;5387;48.722;9.110;2022-12-29T01:41:29;9.10;99.90
10678;DHT22;5387;48.722;9.110;2022-12-29T01:43:58;9.00;99.90
10678;DHT22;5387;48.722;9.110;2022-12-29T01:46:30;9.10;99.90
10678;DHT22;5387;48.722;9.110;2022-12-29T01:49:02;9.10;99.90
10678;DHT22;5387;48.722;9.110;2022-12-29T01:51:34;9.10;99.90
10678;DHT22;5387;48.722;9.110;2022-12-29T01:54:05;9.20;99.90
10678;DHT22;5387;48.722;9.110;2022-12-29T01:56:36;9.20;99.90
10678;DHT22;5387;48.722;9.110;2022-12-29T01:59:06;9.40;99.90
10678;DHT22;5387;48.722;9.110;2022-12-29T02:01:36;9.40;99.90
10678;DHT22;5387;48.722;9.110;2022-12-29T02:04:03;9.40;99.90
10678;DHT22;5387;48.722;9.110;2022-12-29T02:06:34;9.40;99.90
10678;DHT22;5387;48.722;9.110;2022-12-29T02:09:03;9.40;99.90
10678;DHT22;5387;48.722;9.110;2022-12-29T02:11:31;9.30;99.90
10678;DHT22;5387;48.722;9.110;2022-12-29T02:13:58;9.40;99.90
10678;DHT22;5387;48.722;9.110;2022-12-29T02:16:43;9.40;99.90
10678;DHT22;5387;48.722;9.110;2022-12-29T02:22:25;9.20;99.90
10678;DHT22;5387;48.722;9.110;2022-12-29T02:28:27;8.90;99.90
10678;DHT22;5387;48.722;9.110;2022-12-29T02:31:05;9.00;99.90
10678;DHT22;5387;48.722;9.110;2022-12-29T02:33:47;9.10;99.90
10678;DHT22;5387;48.722;9.110;2022-12-29T02:36:25;9.20;99.90
10678;DHT22;5387;48.722;9.110;2022-12-29T02:39:02;9.40;99.90
10678;DHT22;5387;48.722;9.110;2022-12-29T02:41:33;9.60;99.90
10678;DHT22;5387;48.722;9.110;2022-12-29T02:44:07;9.60;99.90
10678;DHT22;5387;48.722;9.110;2022-12-29T02:46:45;9.70;99.90
10678;DHT22;5387;48.722;9.110;2022-12-29T02:49:18;9.80;99.90
10678;DHT22;5387;48.722;9.110;2022-12-29T02:51:50;9.90;99.90
10678;DHT22;5387;48.722;9.110;2022-12-29T02:54:19;9.90;99.90
10678;DHT22;5387;48.722;9.110;2022-12-29T02:57:07;10.00;99.90
10678;DHT22;5387;48.722;9.110;2022-12-29T02:59:35;10.00;99.90
10678;DHT22;5387;48.722;9.110;2022-12-29T03:02:14;10.00;99.90
10678;DHT22;5387;48.722;9.110;2022-12-29T03:04:59;10.10;99.90
10678;DHT22;5387;48.722;9.110;2022-12-29T03:07:37;10.30;99.90
10678;DHT22;5387;48.722;9.110;2022-12-29T03:10:15;10.30;99.90
10678;DHT22;5387;48.722;9.110;2022-12-29T03:12:49;10.20;99.90
10678;DHT22;5387;48.722;9.110;2022-12-29T03:15:43;10.10;99.90
10678;DHT22;5387;48.722;9.110;2022-12-29T03:18:41;10.10;99.90
10678;DHT22;5387;48.722;9.110;2022-12-29T03:21:14;9.90;99.90
10678;DHT22;5387;48.722;9.110;2022-12-29T03:23:44;10.10;99.90
10678;DHT22;5387;48.722;9.110;2022-12-29T03:26:15;10.20;99.90
10678;DHT22;5387;48.722;9.110;2022-12-29T03:28:47;10.20;99.90
10678;DHT22;5387;48.722;9.110;2022-12-29T03:31:17;10.30;99.90
10678;DHT22;5387;48.722;9.110;2022-12-29T03:33:47;10.30;99.90
10678;DHT22;5387;48.722;9.110;2022-12-29T03:36:17;10.30;99.90
10678;DHT22;5387;48.722;9.110;2022-12-29T03:38:49;10.50;99.90
10678;DHT22;5387;48.722;9.110;2022-12-29T03:41:20;10.50;99.90
10678;DHT22;5387;48.722;9.110;2022-12-29T03:43:48;10.60;99.90
10678;DHT22;5387;48.722;9.110;2022-12-29T03:46:15;10.50;99.90
10678;DHT22;5387;48.722;9.110;2022-12-29T03:48:42;10.50;99.90
10678;DHT22;5387;48.722;9.110;2022-12-29T03:51:10;10.50;99.90
10678;DHT22;5387;48.722;9.110;2022-12-29T03:53:37;10.40;99.90
10678;DHT22;5387;48.722;9.110;2022-12-29T03:56:04;10.50;99.90
10678;DHT22;5387;48.722;9.110;2022-12-29T03:58:31;10.50;99.90
10678;DHT22;5387;48.722;9.110;2022-12-29T04:00:57;10.50;99.90
10678;DHT22;5387;48.722;9.110;2022-12-29T04:03:24;10.40;99.90
10678;DHT22;5387;48.722;9.110;2022-12-29T04:05:51;10.30;99.90
10678;DHT22;5387;48.722;9.110;2022-12-29T04:08:19;10.30;99.90
10678;DHT22;5387;48.722;9.110;2022-12-29T04:10:47;10.20;99.90
10678;DHT22;5387;48.722;9.110;2022-12-29T04:13:14;10.10;99.90
10678;DHT22;5387;48.722;9.110;2022-12-29T04:15:42;10.10;99.90
10678;DHT22;5387;48.722;9.110;2022-12-29T04:18:10;10.00;99.90
10678;DHT22;5387;48.722;9.110;2022-12-29T04:20:37;10.00;99.90
10678;DHT22;5387;48.722;9.110;2022-12-29T04:23:23;9.90;99.90
10678;DHT22;5387;48.722;9.110;2022-12-29T04:25:50;9.90;99.90
10678;DHT22;5387;48.722;9.110;2022-12-29T04:28:17;9.90;99.90
10678;DHT22;5387;48.722;9.110;2022-12-29T04:30:45;10.10;99.90
10678;DHT22;5387;48.722;9.110;2022-12-29T04:33:12;10.10;99.90
10678;DHT22;5387;48.722;9.110;2022-12-29T04:35:38;10.20;99.90
10678;DHT22;5387;48.722;9.110;2022-12-29T04:38:05;10.30;99.90
10678;DHT22;5387;48.722;9.110;2022-12-29T04:40:33;10.20;99.90
10678;DHT22;5387;48.722;9.110;2022-12-29T04:43:00;10.20;99.90
10678;DHT22;5387;48.722;9.110;2022-12-29T04:45:27;10.10;99.90
10678;DHT22;5387;48.722;9.110;2022-12-29T04:47:54;10.30;99.90
10678;DHT22;5387;48.722;9.110;2022-12-29T04:50:21;10.40;99.90
10678;DHT22;5387;48.722;9.110;2022-12-29T04:52:47;10.40;99.90
10678;DHT22;5387;48.722;9.110;2022-12-29T04:55:14;10.40;99.90
10678;DHT22;5387;48.722;9.110;2022-12-29T04:57:42;10.50;99.90
10678;DHT22;5387;48.722;9.110;2022-12-29T05:00:10;10.40;99.90
10678;DHT22;5387;48.722;9.110;2022-12-29T05:02:38;10.40;99.90
10678;DHT22;5387;48.722;9.110;2022-12-29T05:05:05;10.40;99.90
10678;DHT22;5387;48.722;9.110;2022-12-29T05:07:32;10.40;99.90
10678;DHT22;5387;48.722;9.110;2022-12-29T05:09:59;10.30;99.90
10678;DHT22;5387;48.722;9.110;2022-12-29T05:12:29;10.20;99.90
10678;DHT22;5387;48.722;9.110;2022-12-29T05:14:57;10.30;99.90
10678;DHT22;5387;48.722;9.110;2022-12-29T05:17:24;10.20;99.90
10678;DHT22;5387;48.722;9.110;2022-12-29T05:19:51;10.20;99.90
10678;DHT22;5387;48.722;9.110;2022-12-29T05:22:18;10.20;99.90
10678;DHT22;5387;48.722;9.110;2022-12-29T05:24:45;10.20;99.90
10678;DHT22;5387;48.722;9.110;2022-12-29T05:27:11;10.00;99.90
10678;DHT22;5387;48.722;9.110;2022-12-29T05:29:38;10.10;99.90
10678;DHT22;5387;48.722;9.110;2022-12-29T05:32:06;9.90;99.90
10678;DHT22;5387;48.722;9.110;2022-12-29T05:34:33;9.90;99.90
10678;DHT22;5387;48.722;9.110;2022-12-29T05:37:00;9.80;99.90
10678;DHT22;5387;48.722;9.110;2022-12-29T05:39:27;10.00;99.90
10678;DHT22;5387;48.722;9.110;2022-12-29T05:41:54;10.00;99.90
10678;DHT22;5387;48.722;9.110;2022-12-29T05:44:21;10.10;99.90
10678;DHT22;5387;48.722;9.110;2022-12-29T05:46:48;9.90;99.90
10678;DHT22;5387;48.722;9.110;2022-12-29T05:49:16;10.00;99.90
10678;DHT22;5387;48.722;9.110;2022-12-29T05:51:43;10.00;99.90
10678;DHT22;5387;48.722;9.110;2022-12-29T05:54:10;10.10;99.90
10678;DHT22;5387;48.722;9.110;2022-12-29T05:56:36;10.10;99.90
10678;DHT22;5387;48.722;9.110;2022-12-29T05:59:03;10.00;99.90
10678;DHT22;5387;48.722;9.110;2022-12-29T06:01:30;10.10;99.90
10678;DHT22;5387;48.722;9.110;2022-12-29T06:03:57;10.10;99.90
10678;DHT22;5387;48.722;9.110;2022-12-29T06:06:25;10.20;99.90
10678;DHT22;5387;48.722;9.110;2022-12-29T06:08:52;10.20;99.90
10678;DHT22;5387;48.722;9.110;2022-12-29T06:11:19;10.10;99.90
10678;DHT22;5387;48.722;9.110;2022-12-29T06:13:46;10.20;99.90
10678;DHT22;5387;48.722;9.110;2022-12-29T06:16:12;10.20;99.90
10678;DHT22;5387;48.722;9.110;2022-12-29T06:18:39;10.40;99.90
10678;DHT22;5387;48.722;9.110;2022-12-29T06:21:06;10.30;99.90
10678;DHT22;5387;48.722;9.110;2022-12-29T06:23:34;10.30;99.90
10678;DHT22;5387;48.722;9.110;2022-12-29T06:26:01;10.40;99.90
10678;DHT22;5387;48.722;9.110;2022-12-29T06:28:28;10.40;99.90
10678;DHT22;5387;48.722;9.110;2022-12-29T06:30:55;10.40;99.90
10678;DHT22;5387;48.722;9.110;2022-12-29T06:33:22;10.50;99.90
10678;DHT22;5387;48.722;9.110;2022-12-29T06:35:49;10.50;99.90
10678;DHT22;5387;48.722;9.110;2022-12-29T06:38:16;10.40;99.90
10678;DHT22;5387;48.722;9.110;2022-12-29T06:40:44;10.50;99.90
10678;DHT22;5387;48.722;9.110;2022-12-29T06:43:11;10.40;99.90
10678;DHT22;5387;48.722;9.110;2022-12-29T06:45:38;10.40;99.90
10678;DHT22;5387;48.722;9.110;2022-12-29T06:48:06;10.30;99.90
10678;DHT22;5387;48.722;9.110;2022-12-29T06:50:32;10.30;99.90
10678;DHT22;5387;48.722;9.110;2022-12-29T06:52:59;10.30;99.90
10678;DHT22;5387;48.722;9.110;2022-12-29T06:55:26;10.30;99.90
10678;DHT22;5387;48.722;9.110;2022-12-29T06:57:55;10.10;99.90
10678;DHT22;5387;48.722;9.110;2022-12-29T07:00:22;9.90;99.90
10678;DHT22;5387;48.722;9.110;2022-12-29T07:02:49;9.90;99.90
10678;DHT22;5387;48.722;9.110;2022-12-29T07:05:16;9.80;99.90
10678;DHT22;5387;48.722;9.110;2022-12-29T07:07:43;9.80;99.90
10678;DHT22;5387;48.722;9.110;2022-12-29T07:10:10;9.70;99.90
10678;DHT22;5387;48.722;9.110;2022-12-29T07:12:37;9.60;99.90
10678;DHT22;5387;48.722;9.110;2022-12-29T07:15:06;9.60;99.90
10678;DHT22;5387;48.722;9.110;2022-12-29T07:17:33;9.60;99.90
10678;DHT22;5387;48.722;9.110;2022-12-29T07:19:59;9.60;99.90
10678;DHT22;5387;48.722;9.110;2022-12-29T07:22:26;9.50;99.90
10678;DHT22;5387;48.722;9.110;2022-12-29T07:24:53;9.50;99.90
10678;DHT22;5387;48.722;9.110;2022-12-29T07:27:20;9.50;99.90
10678;DHT22;5387;48.722;9.110;2022-12-29T07:29:47;9.50;99.90
10678;DHT22;5387;48.722;9.110;2022-12-29T07:32:15;9.60;99.90
10678;DHT22;5387;48.722;9.110;2022-12-29T07:34:42;9.60;99.90
10678;DHT22;5387;48.722;9.110;2022-12-29T07:37:10;9.60;99.90
10678;DHT22;5387;48.722;9.110;2022-12-29T07:39:37;9.60;99.90
10678;DHT22;5387;48.722;9.110;2022-12-29T07:42:04;9.70;99.90
10678;DHT22;5387;48.722;9.110;2022-12-29T07:44:31;9.80;99.90
10678;DHT22;5387;48.722;9.110;2022-12-29T07:46:57;9.90;99.90
10678;DHT22;5387;48.722;9.110;2022-12-29T07:49:26;10.00;99.90
10678;DHT22;5387;48.722;9.110;2022-12-29T07:51:52;9.90;99.90
10678;DHT22;5387;48.722;9.110;2022-12-29T07:54:19;10.00;99.90
10678;DHT22;5387;48.722;9.110;2022-12-29T07:56:48;10.00;99.90
10678;DHT22;5387;48.722;9.110;2022-12-29T07:59:15;10.00;99.90
10678;DHT22;5387;48.722;9.110;2022-12-29T08:01:42;10.00;99.90
10678;DHT22;5387;48.722;9.110;2022-12-29T08:04:09;10.00;99.90
10678;DHT22;5387;48.722;9.110;2022-12-29T08:06:37;10.00;99.90
10678;DHT22;5387;48.722;9.110;2022-12-29T08:09:04;10.00;99.90
10678;DHT22;5387;48.722;9.110;2022-12-29T08:11:31;10.00;99.90
10678;DHT22;5387;48.722;9.110;2022-12-29T08:13:57;10.10;99.90
10678;DHT22;5387;48.722;9.110;2022-12-29T08:16:24;10.10;99.90
10678;DHT22;5387;48.722;9.110;2022-12-29T08:18:51;10.20;99.90
10678;DHT22;5387;48.722;9.110;2022-12-29T08:21:18;10.20;99.90
10678;DHT22;5387;48.722;9.110;2022-12-29T08:23:47;10.30;99.90
10678;DHT22;5387;48.722;9.110;2022-12-29T08:26:14;10.20;99.90
10678;DHT22;5387;48.722;9.110;2022-12-29T08:28:40;10.30;99.90
10678;DHT22;5387;48.722;9.110;2022-12-29T08:31:10;10.30;99.90
10678;DHT22;5387;48.722;9.110;2022-12-29T08:33:37;10.40;99.90
10678;DHT22;5387;48.722;9.110;2022-12-29T08:36:06;10.50;99.90
10678;DHT22;5387;48.722;9.110;2022-12-29T08:38:33;10.40;99.90
10678;DHT22;5387;48.722;9.110;2022-12-29T08:41:01;10.40;99.90
10678;DHT22;5387;48.722;9.110;2022-12-29T08:43:28;10.40;99.90
10678;DHT22;5387;48.722;9.110;2022-12-29T08:45:56;10.40;99.90
10678;DHT22;5387;48.722;9.110;2022-12-29T08:48:24;10.40;99.90
10678;DHT22;5387;48.722;9.110;2022-12-29T08:50:51;10.30;99.90
10678;DHT22;5387;48.722;9.110;2022-12-29T08:53:18;10.20;99.90
10678;DHT22;5387;48.722;9.110;2022-12-29T08:55:45;10.30;99.90
10678;DHT22;5387;48.722;9.110;2022-12-29T08:58:14;10.30;99.90
10678;DHT22;5387;48.722;9.110;2022-12-29T09:00:42;10.30;99.90
10678;DHT22;5387;48.722;9.110;2022-12-29T09:03:09;10.30;99.90
10678;DHT22;5387;48.722;9.110;2022-12-29T09:05:36;10.40;99.90
10678;DHT22;5387;48.722;9.110;2022-12-29T09:08:03;10.30;99.90
10678;DHT22;5387;48.722;9.110;2022-12-29T09:10:30;10.30;99.90
10678;DHT22;5387;48.722;9.110;2022-12-29T09:12:56;10.30;99.90
10678;DHT22;5387;48.722;9.110;2022-12-29T09:15:25;10.50;99.90
10678;DHT22;5387;48.722;9.110;2022-12-29T09:17:51;10.60;99.90
10678;DHT22;5387;48.722;9.110;2022-12-29T09:20:19;10.60;99.90
10678;DHT22;5387;48.722;9.110;2022-12-29T09:22:46;10.70;99.90
10678;DHT22;5387;48.722;9.110;2022-12-29T09:25:14;10.80;99.90
10678;DHT22;5387;48.722;9.110;2022-12-29T09:27:41;10.90;99.90
10678;DHT22;5387;48.722;9.110;2022-12-29T09:30:10;10.90;99.90
10678;DHT22;5387;48.722;9.110;2022-12-29T09:32:38;11.00;99.90
10678;DHT22;5387;48.722;9.110;2022-12-29T09:35:05;11.10;99.90
10678;DHT22;5387;48.722;9.110;2022-12-29T09:37:32;11.10;99.90
10678;DHT22;5387;48.722;9.110;2022-12-29T09:39:59;11.20;99.90
10678;DHT22;5387;48.722;9.110;2022-12-29T09:42:28;11.10;99.90
10678;DHT22;5387;48.722;9.110;2022-12-29T09:45:04;11.20;99.90
10678;DHT22;5387;48.722;9.110;2022-12-29T09:47:37;11.20;99.90
10678;DHT22;5387;48.722;9.110;2022-12-29T09:50:14;11.20;99.90
10678;DHT22;5387;48.722;9.110;2022-12-29T09:52:49;11.20;99.90
10678;DHT22;5387;48.722;9.110;2022-12-29T09:55:20;11.60;99.90
10678;DHT22;5387;48.722;9.110;2022-12-29T09:57:49;11.40;99.90
10678;DHT22;5387;48.722;9.110;2022-12-29T10:00:21;11.40;99.90
10678;DHT22;5387;48.722;9.110;2022-12-29T10:02:54;11.40;99.90
10678;DHT22;5387;48.722;9.110;2022-12-29T10:05:36;11.40;99.90
10678;DHT22;5387;48.722;9.110;2022-12-29T10:08:14;11.60;99.90
10678;DHT22;5387;48.722;9.110;2022-12-29T10:10:51;11.50;99.90
10678;DHT22;5387;48.722;9.110;2022-12-29T10:13:28;11.70;99.90
10678;DHT22;5387;48.722;9.110;2022-12-29T10:16:02;11.70;99.90
10678;DHT22;5387;48.722;9.110;2022-12-29T10:18:52;11.90;99.90
10678;DHT22;5387;48.722;9.110;2022-12-29T10:21:29;12.00;99.90
10678;DHT22;5387;48.722;9.110;2022-12-29T10:24:06;12.10;99.90
10678;DHT22;5387;48.722;9.110;2022-12-29T10:26:39;12.20;99.90
10678;DHT22;5387;48.722;9.110;2022-12-29T10:29:13;12.30;99.90
10678;DHT22;5387;48.722;9.110;2022-12-29T10:31:44;12.30;99.90
10678;DHT22;5387;48.722;9.110;2022-12-29T10:34:19;12.40;99.90
10678;DHT22;5387;48.722;9.110;2022-12-29T10:36:48;12.50;99.90
10678;DHT22;5387;48.722;9.110;2022-12-29T10:39:21;12.30;99.90
10678;DHT22;5387;48.722;9.110;2022-12-29T10:41:55;12.40;99.90
10678;DHT22;5387;48.722;9.110;2022-12-29T10:44:29;12.40;99.90
10678;DHT22;5387;48.722;9.110;2022-12-29T10:46:59;12.50;99.90
10678;DHT22;5387;48.722;9.110;2022-12-29T10:49:30;12.90;99.90
10678;DHT22;5387;48.722;9.110;2022-12-29T10:51:59;13.00;99.90
10678;DHT22;5387;48.722;9.110;2022-12-29T10:54:31;13.10;99.90
10678;DHT22;5387;48.722;9.110;2022-12-29T10:57:01;13.20;99.90
10678;DHT22;5387;48.722;9.110;2022-12-29T10:59:31;13.10;99.90
10678;DHT22;5387;48.722;9.110;2022-12-29T11:02:13;13.10;99.90
10678;DHT22;5387;48.722;9.110;2022-12-29T11:04:50;13.10;99.90
10678;DHT22;5387;48.722;9.110;2022-12-29T11:07:20;12.90;99.90
10678;DHT22;5387;48.722;9.110;2022-12-29T11:09:47;12.60;99.90
10678;DHT22;5387;48.722;9.110;2022-12-29T11:12:23;12.60;99.90
10678;DHT22;5387;48.722;9.110;2022-12-29T11:15:12;12.50;99.90
10678;DHT22;5387;48.722;9.110;2022-12-29T11:17:44;12.50;99.90
10678;DHT22;5387;48.722;9.110;2022-12-29T11:20:31;12.50;99.90
10678;DHT22;5387;48.722;9.110;2022-12-29T11:22:59;12.50;99.90
10678;DHT22;5387;48.722;9.110;2022-12-29T11:25:26;12.50;99.90
10678;DHT22;5387;48.722;9.110;2022-12-29T11:27:58;12.20;99.90
10678;DHT22;5387;48.722;9.110;2022-12-29T11:30:27;12.20;99.90
10678;DHT22;5387;48.722;9.110;2022-12-29T11:32:56;12.00;99.90
10678;DHT22;5387;48.722;9.110;2022-12-29T11:35:32;12.00;99.90
10678;DHT22;5387;48.722;9.110;2022-12-29T11:38:00;11.80;99.90
10678;DHT22;5387;48.722;9.110;2022-12-29T11:40:28;11.70;99.90
10678;DHT22;5387;48.722;9.110;2022-12-29T11:42:57;11.80;99.90
10678;DHT22;5387;48.722;9.110;2022-12-29T11:45:30;11.80;99.90
10678;DHT22;5387;48.722;9.110;2022-12-29T11:48:00;11.80;99.90
10678;DHT22;5387;48.722;9.110;2022-12-29T11:50:31;11.90;99.90
10678;DHT22;5387;48.722;9.110;2022-12-29T11:53:00;12.10;99.90
10678;DHT22;5387;48.722;9.110;2022-12-29T11:55:28;12.10;99.90
10678;DHT22;5387;48.722;9.110;2022-12-29T11:57:58;12.00;99.90
10678;DHT22;5387;48.722;9.110;2022-12-29T12:00:28;11.70;99.90
10678;DHT22;5387;48.722;9.110;2022-12-29T12:02:59;11.80;99.90
10678;DHT22;5387;48.722;9.110;2022-12-29T12:05:37;11.80;99.90
10678;DHT22;5387;48.722;9.110;2022-12-29T12:08:10;11.80;99.90
10678;DHT22;5387;48.722;9.110;2022-12-29T12:10:42;11.70;99.90
10678;DHT22;5387;48.722;9.110;2022-12-29T12:13:20;11.70;99.90
10678;DHT22;5387;48.722;9.110;2022-12-29T12:15:52;11.70;99.90
10678;DHT22;5387;48.722;9.110;2022-12-29T12:18:31;11.80;99.90
10678;DHT22;5387;48.722;9.110;2022-12-29T12:21:05;11.60;99.90
10678;DHT22;5387;48.722;9.110;2022-12-29T12:23:45;11.70;99.90
10678;DHT22;5387;48.722;9.110;2022-12-29T12:26:21;11.60;99.90
10678;DHT22;5387;48.722;9.110;2022-12-29T12:28:53;11.70;99.90
10678;DHT22;5387;48.722;9.110;2022-12-29T12:31:30;11.80;99.90
10678;DHT22;5387;48.722;9.110;2022-12-29T12:34:04;11.60;99.90
10678;DHT22;5387;48.722;9.110;2022-12-29T12:36:49;11.50;99.90
10678;DHT22;5387;48.722;9.110;2022-12-29T12:39:26;11.30;99.90
10678;DHT22;5387;48.722;9.110;2022-12-29T12:42:03;11.30;99.90
10678;DHT22;5387;48.722;9.110;2022-12-29T12:44:40;11.00;99.90
10678;DHT22;5387;48.722;9.110;2022-12-29T12:47:22;10.90;99.90
10678;DHT22;5387;48.722;9.110;2022-12-29T12:50:19;10.90;99.90
10678;DHT22;5387;48.722;9.110;2022-12-29T12:55:59;10.90;99.90
10678;DHT22;5387;48.722;9.110;2022-12-29T12:58:35;11.00;99.90
10678;DHT22;5387;48.722;9.110;2022-12-29T13:01:15;11.30;99.90
10678;DHT22;5387;48.722;9.110;2022-12-29T13:03:53;11.50;99.90
10678;DHT22;5387;48.722;9.110;2022-12-29T13:06:30;11.90;99.90
10678;DHT22;5387;48.722;9.110;2022-12-29T13:11:58;11.70;99.90
10678;DHT22;5387;48.722;9.110;2022-12-29T13:14:38;11.70;99.90
10678;DHT22;5387;48.722;9.110;2022-12-29T13:17:13;11.70;99.90
10678;DHT22;5387;48.722;9.110;2022-12-29T13:19:47;11.70;99.90
10678;DHT22;5387;48.722;9.110;2022-12-29T13:22:21;11.90;99.90
10678;DHT22;5387;48.722;9.110;2022-12-29T13:25:07;11.80;99.90
10678;DHT22;5387;48.722;9.110;2022-12-29T13:27:44;11.70;99.90
10678;DHT22;5387;48.722;9.110;2022-12-29T13:30:17;11.90;99.90
10678;DHT22;5387;48.722;9.110;2022-12-29T13:32:53;11.60;99.90
10678;DHT22;5387;48.722;9.110;2022-12-29T13:35:31;11.50;99.90
10678;DHT22;5387;48.722;9.110;2022-12-29T13:38:05;11.40;99.90
10678;DHT22;5387;48.722;9.110;2022-12-29T13:40:39;11.40;99.90
10678;DHT22;5387;48.722;9.110;2022-12-29T13:43:08;11.50;99.90
10678;DHT22;5387;48.722;9.110;2022-12-29T13:45:36;11.30;99.90
10678;DHT22;5387;48.722;9.110;2022-12-29T13:48:06;11.50;99.90
10678;DHT22;5387;48.722;9.110;2022-12-29T13:50:38;11.20;99.90
10678;DHT22;5387;48.722;9.110;2022-12-29T13:53:14;11.20;99.90
10678;DHT22;5387;48.722;9.110;2022-12-29T13:55:51;11.00;99.90
10678;DHT22;5387;48.722;9.110;2022-12-29T13:58:26;11.10;99.90
10678;DHT22;5387;48.722;9.110;2022-12-29T14:00:58;10.90;99.90
10678;DHT22;5387;48.722;9.110;2022-12-29T14:03:48;11.00;99.90
10678;DHT22;5387;48.722;9.110;2022-12-29T14:06:22;11.40;99.90
10678;DHT22;5387;48.722;9.110;2022-12-29T14:08:52;11.40;99.90
10678;DHT22;5387;48.722;9.110;2022-12-29T14:11:23;11.50;99.90
10678;DHT22;5387;48.722;9.110;2022-12-29T14:13:51;11.40;99.90
10678;DHT22;5387;48.722;9.110;2022-12-29T14:16:29;11.40;99.90
10678;DHT22;5387;48.722;9.110;2022-12-29T14:19:03;11.50;99.90
10678;DHT22;5387;48.722;9.110;2022-12-29T14:21:32;11.30;99.90
10678;DHT22;5387;48.722;9.110;2022-12-29T14:24:38;11.20;99.90
10678;DHT22;5387;48.722;9.110;2022-12-29T14:33:13;11.10;99.90
10678;DHT22;5387;48.722;9.110;2022-12-29T14:35:42;11.10;99.90
10678;DHT22;5387;48.722;9.110;2022-12-29T14:38:17;11.10;99.90
10678;DHT22;5387;48.722;9.110;2022-12-29T14:40:45;11.00;99.90
10678;DHT22;5387;48.722;9.110;2022-12-29T14:43:16;11.10;99.90
10678;DHT22;5387;48.722;9.110;2022-12-29T14:45:52;10.90;99.90
10678;DHT22;5387;48.722;9.110;2022-12-29T14:48:38;10.90;99.90
10678;DHT22;5387;48.722;9.110;2022-12-29T14:51:28;11.10;99.90
10678;DHT22;5387;48.722;9.110;2022-12-29T14:53:55;10.90;99.90
10678;DHT22;5387;48.722;9.110;2022-12-29T14:56:26;10.90;99.90
10678;DHT22;5387;48.722;9.110;2022-12-29T14:58:55;10.80;99.90
10678;DHT22;5387;48.722;9.110;2022-12-29T15:01:28;10.80;99.90
10678;DHT22;5387;48.722;9.110;2022-12-29T15:04:05;10.90;99.90
10678;DHT22;5387;48.722;9.110;2022-12-29T15:06:39;10.80;99.90
10678;DHT22;5387;48.722;9.110;2022-12-29T15:09:15;10.90;99.90
10678;DHT22;5387;48.722;9.110;2022-12-29T15:11:49;10.90;99.90
10678;DHT22;5387;48.722;9.110;2022-12-29T15:14:38;10.90;99.90
10678;DHT22;5387;48.722;9.110;2022-12-29T15:17:20;10.80;99.90
10678;DHT22;5387;48.722;9.110;2022-12-29T15:19:49;10.80;99.90
10678;DHT22;5387;48.722;9.110;2022-12-29T15:22:16;10.90;99.90
10678;DHT22;5387;48.722;9.110;2022-12-29T15:24:44;10.80;99.90
10678;DHT22;5387;48.722;9.110;2022-12-29T15:27:14;10.70;99.90
10678;DHT22;5387;48.722;9.110;2022-12-29T15:29:43;10.70;99.90
10678;DHT22;5387;48.722;9.110;2022-12-29T15:32:18;10.70;99.90
10678;DHT22;5387;48.722;9.110;2022-12-29T15:34:46;10.80;99.90
10678;DHT22;5387;48.722;9.110;2022-12-29T15:37:21;10.70;99.90
10678;DHT22;5387;48.722;9.110;2022-12-29T15:39:48;10.80;99.90
10678;DHT22;5387;48.722;9.110;2022-12-29T15:45:11;10.70;99.90
10678;DHT22;5387;48.722;9.110;2022-12-29T15:47:40;10.60;99.90
10678;DHT22;5387;48.722;9.110;2022-12-29T15:50:15;10.70;99.90
10678;DHT22;5387;48.722;9.110;2022-12-29T15:52:44;10.90;99.90
10678;DHT22;5387;48.722;9.110;2022-12-29T15:55:20;10.80;99.90
10678;DHT22;5387;48.722;9.110;2022-12-29T15:57:48;11.00;99.90
10678;DHT22;5387;48.722;9.110;2022-12-29T16:00:22;10.90;99.90
10678;DHT22;5387;48.722;9.110;2022-12-29T16:02:50;11.00;99.90
10678;DHT22;5387;48.722;9.110;2022-12-29T16:05:17;10.90;99.90
10678;DHT22;5387;48.722;9.110;2022-12-29T16:07:54;10.90;99.90
10678;DHT22;5387;48.722;9.110;2022-12-29T16:10:32;10.10;99.90
10678;DHT22;5387;48.722;9.110;2022-12-29T16:13:09;9.70;99.90
10678;DHT22;5387;48.722;9.110;2022-12-29T16:15:40;9.30;99.90
10678;DHT22;5387;48.722;9.110;2022-12-29T16:18:19;9.10;99.90
10678;DHT22;5387;48.722;9.110;2022-12-29T16:20:48;9.00;99.90
10678;DHT22;5387;48.722;9.110;2022-12-29T16:23:19;8.80;99.90
10678;DHT22;5387;48.722;9.110;2022-12-29T16:25:47;8.70;99.90
10678;DHT22;5387;48.722;9.110;2022-12-29T16:28:18;8.60;99.90
10678;DHT22;5387;48.722;9.110;2022-12-29T16:30:45;8.60;99.90
10678;DHT22;5387;48.722;9.110;2022-12-29T16:33:36;8.50;99.90
10678;DHT22;5387;48.722;9.110;2022-12-29T16:36:29;8.50;99.90
10678;DHT22;5387;48.722;9.110;2022-12-29T16:39:30;8.70;99.90